sensor_id;sensor_type;location;lat;lon;timestamp;temperature;humidity
11152;DHT22;5630;49.342;10.802;2024-01-06T00:00:57;5.20;99.90
11152;DHT22;5630;49.342;10.802;2024-01-06T00:03:22;5.20;99.90
11152;DHT22;5630;49.342;10.802;2024-01-06T00:05:48;5.10;99.90
11152;DHT22;5630;49.342;10.802;2024-01-06T00:08:13;5.10;99.90
11152;DHT22;5630;49.342;10.802;2024-01-06T00:10:39;5.10;99.90
11152;DHT22;5630;49.342;10.802;2024-01-06T00:13:04;5.10;99.90
11152;DHT22;5630;49.342;10.802;2024-01-06T00:15:30;5.00;99.90
11152;DHT22;5630;49.342;10.802;2024-01-06T00:17:55;5.00;99.90
11152;DHT22;5630;49.342;10.802;2024-01-06T00:20:21;5.00;99.90
11152;DHT22;5630;49.342;10.802;2024-01-06T00:22:46;5.10;99.90
11152;DHT22;5630;49.342;10.802;2024-01-06T00:25:12;5.00;99.90
11152;DHT22;5630;49.342;10.802;2024-01-06T00:27:37;5.00;99.90
11152;DHT22;5630;49.342;10.802;2024-01-06T00:30:03;5.10;99.90
11152;DHT22;5630;49.342;10.802;2024-01-06T00:32:29;5.00;99.90
11152;DHT22;5630;49.342;10.802;2024-01-06T00:34:55;5.00;99.90
11152;DHT22;5630;49.342;10.802;2024-01-06T00:37:20;5.00;99.90
11152;DHT22;5630;49.342;10.802;2024-01-06T00:39:46;4.90;99.90
11152;DHT22;5630;49.342;10.802;2024-01-06T00:42:11;5.00;99.90
11152;DHT22;5630;49.342;10.802;2024-01-06T00:44:37;5.00;99.90
11152;DHT22;5630;49.342;10.802;2024-01-06T00:47:03;5.00;99.90
11152;DHT22;5630;49.342;10.802;2024-01-06T00:49:28;4.90;99.90
11152;DHT22;5630;49.342;10.802;2024-01-06T00:51:54;4.90;99.90
11152;DHT22;5630;49.342;10.802;2024-01-06T00:54:19;4.80;99.90
11152;DHT22;5630;49.342;10.802;2024-01-06T00:56:45;4.90;99.90
11152;DHT22;5630;49.342;10.802;2024-01-06T00:59:10;4.80;99.90
11152;DHT22;5630;49.342;10.802;2024-01-06T01:01:36;4.80;99.90
11152;DHT22;5630;49.342;10.802;2024-01-06T01:04:02;4.80;99.90
11152;DHT22;5630;49.342;10.802;2024-01-06T01:06:27;4.80;99.90
11152;DHT22;5630;49.342;10.802;2024-01-06T01:08:53;4.80;99.90
11152;DHT22;5630;49.342;10.802;2024-01-06T01:11:19;4.80;99.90
11152;DHT22;5630;49.342;10.802;2024-01-06T01:13:44;4.80;99.90
11152;DHT22;5630;49.342;10.802;2024-01-06T01:16:10;4.80;99.90
11152;DHT22;5630;49.342;10.802;2024-01-06T01:18:36;4.80;99.90
11152;DHT22;5630;49.342;10.802;2024-01-06T01:21:01;4.80;99.90
11152;DHT22;5630;49.342;10.802;2024-01-06T01:23:27;4.80;99.90
11152;DHT22;5630;49.342;10.802;2024-01-06T01:25:54;4.80;99.90
11152;DHT22;5630;49.342;10.802;2024-01-06T01:28:19;4.80;99.90
11152;DHT22;5630;49.342;10.802;2024-01-06T01:30:45;4.80;99.90
11152;DHT22;5630;49.342;10.802;2024-01-06T01:33:10;4.80;99.90
11152;DHT22;5630;49.342;10.802;2024-01-06T01:35:36;4.80;99.90
11152;DHT22;5630;49.342;10.802;2024-01-06T01:38:01;4.80;99.90
11152;DHT22;5630;49.342;10.802;2024-01-06T01:40:28;4.70;99.90
11152;DHT22;5630;49.342;10.802;2024-01-06T01:42:53;4.70;99.90
11152;DHT22;5630;49.342;10.802;2024-01-06T01:45:19;4.70;99.90
11152;DHT22;5630;49.342;10.802;2024-01-06T01:47:44;4.80;99.90
11152;DHT22;5630;49.342;10.802;2024-01-06T01:50:12;4.80;99.90
11152;DHT22;5630;49.342;10.802;2024-01-06T01:52:37;4.80;99.90
11152;DHT22;5630;49.342;10.802;2024-01-06T01:55:04;4.80;99.90
11152;DHT22;5630;49.342;10.802;2024-01-06T01:57:30;4.80;99.90
11152;DHT22;5630;49.342;10.802;2024-01-06T01:59:57;4.80;99.90
11152;DHT22;5630;49.342;10.802;2024-01-06T02:02:22;4.80;99.90
11152;DHT22;5630;49.342;10.802;2024-01-06T02:04:48;4.80;99.90
11152;DHT22;5630;49.342;10.802;2024-01-06T02:07:14;4.80;99.90
11152;DHT22;5630;49.342;10.802;2024-01-06T02:09:40;4.80;99.90
11152;DHT22;5630;49.342;10.802;2024-01-06T02:12:05;4.80;99.90
11152;DHT22;5630;49.342;10.802;2024-01-06T02:14:31;4.80;99.90
11152;DHT22;5630;49.342;10.802;2024-01-06T02:16:58;4.80;99.90
11152;DHT22;5630;49.342;10.802;2024-01-06T02:19:24;4.80;99.90
11152;DHT22;5630;49.342;10.802;2024-01-06T02:21:53;4.80;99.90
11152;DHT22;5630;49.342;10.802;2024-01-06T02:24:19;4.80;99.90
11152;DHT22;5630;49.342;10.802;2024-01-06T02:26:45;4.80;99.90
11152;DHT22;5630;49.342;10.802;2024-01-06T02:29:10;4.80;99.90
11152;DHT22;5630;49.342;10.802;2024-01-06T02:31:36;4.80;99.90
11152;DHT22;5630;49.342;10.802;2024-01-06T02:34:01;4.80;99.90
11152;DHT22;5630;49.342;10.802;2024-01-06T02:36:27;4.70;99.90
11152;DHT22;5630;49.342;10.802;2024-01-06T02:38:52;4.70;99.90
11152;DHT22;5630;49.342;10.802;2024-01-06T02:41:18;4.70;99.90
11152;DHT22;5630;49.342;10.802;2024-01-06T02:43:44;4.70;99.90
11152;DHT22;5630;49.342;10.802;2024-01-06T02:46:09;4.70;99.90
11152;DHT22;5630;49.342;10.802;2024-01-06T02:48:35;4.70;99.90
11152;DHT22;5630;49.342;10.802;2024-01-06T02:51:00;4.70;99.90
11152;DHT22;5630;49.342;10.802;2024-01-06T02:53:26;4.70;99.90
11152;DHT22;5630;49.342;10.802;2024-01-06T02:55:51;4.70;99.90
11152;DHT22;5630;49.342;10.802;2024-01-06T02:58:17;4.70;99.90
11152;DHT22;5630;49.342;10.802;2024-01-06T03:00:42;4.70;99.90
11152;DHT22;5630;49.342;10.802;2024-01-06T03:03:08;4.70;99.90
11152;DHT22;5630;49.342;10.802;2024-01-06T03:05:33;4.70;99.90
11152;DHT22;5630;49.342;10.802;2024-01-06T03:07:59;4.70;99.90
11152;DHT22;5630;49.342;10.802;2024-01-06T03:10:25;4.70;99.90
11152;DHT22;5630;49.342;10.802;2024-01-06T03:12:51;4.70;99.90
11152;DHT22;5630;49.342;10.802;2024-01-06T03:15:16;4.70;99.90
11152;DHT22;5630;49.342;10.802;2024-01-06T03:17:42;4.70;99.90
11152;DHT22;5630;49.342;10.802;2024-01-06T03:20:08;4.80;99.90
11152;DHT22;5630;49.342;10.802;2024-01-06T03:22:34;4.80;99.90
11152;DHT22;5630;49.342;10.802;2024-01-06T03:25:00;4.80;99.90
11152;DHT22;5630;49.342;10.802;2024-01-06T03:27:25;4.70;99.90
11152;DHT22;5630;49.342;10.802;2024-01-06T03:29:51;4.80;99.90
11152;DHT22;5630;49.342;10.802;2024-01-06T03:32:16;4.70;99.90
11152;DHT22;5630;49.342;10.802;2024-01-06T03:34:42;4.70;99.90
11152;DHT22;5630;49.342;10.802;2024-01-06T03:37:08;4.70;99.90
11152;DHT22;5630;49.342;10.802;2024-01-06T03:39:33;4.70;99.90
11152;DHT22;5630;49.342;10.802;2024-01-06T03:42:00;4.70;99.90
11152;DHT22;5630;49.342;10.802;2024-01-06T03:44:25;4.70;99.90
11152;DHT22;5630;49.342;10.802;2024-01-06T03:46:56;4.70;99.90
11152;DHT22;5630;49.342;10.802;2024-01-06T03:49:22;4.60;99.90
11152;DHT22;5630;49.342;10.802;2024-01-06T03:51:48;4.60;99.90
11152;DHT22;5630;49.342;10.802;2024-01-06T03:54:13;4.60;99.90
11152;DHT22;5630;49.342;10.802;2024-01-06T03:56:39;4.60;99.90
11152;DHT22;5630;49.342;10.802;2024-01-06T03:59:04;4.60;99.90
11152;DHT22;5630;49.342;10.802;2024-01-06T04:01:30;4.60;99.90
11152;DHT22;5630;49.342;10.802;2024-01-06T04:04:00;4.60;99.90
11152;DHT22;5630;49.342;10.802;2024-01-06T04:06:26;4.60;99.90
11152;DHT22;5630;49.342;10.802;2024-01-06T04:08:52;4.60;99.90
11152;DHT22;5630;49.342;10.802;2024-01-06T04:11:20;4.60;99.90
11152;DHT22;5630;49.342;10.802;2024-01-06T04:13:46;4.60;99.90
11152;DHT22;5630;49.342;10.802;2024-01-06T04:16:11;4.60;99.90
11152;DHT22;5630;49.342;10.802;2024-01-06T04:18:37;4.60;99.90
11152;DHT22;5630;49.342;10.802;2024-01-06T04:21:03;4.60;99.90
11152;DHT22;5630;49.342;10.802;2024-01-06T04:23:28;4.60;99.90
11152;DHT22;5630;49.342;10.802;2024-01-06T04:25:54;4.50;99.90
11152;DHT22;5630;49.342;10.802;2024-01-06T04:28:19;4.50;99.90
11152;DHT22;5630;49.342;10.802;2024-01-06T04:30:45;4.60;99.90
11152;DHT22;5630;49.342;10.802;2024-01-06T04:33:10;4.50;99.90
11152;DHT22;5630;49.342;10.802;2024-01-06T04:35:36;4.60;99.90
11152;DHT22;5630;49.342;10.802;2024-01-06T04:38:01;4.60;99.90
11152;DHT22;5630;49.342;10.802;2024-01-06T04:40:27;4.50;99.90
11152;DHT22;5630;49.342;10.802;2024-01-06T04:42:53;4.60;99.90
11152;DHT22;5630;49.342;10.802;2024-01-06T04:45:18;4.60;99.90
11152;DHT22;5630;49.342;10.802;2024-01-06T04:47:45;4.60;99.90
11152;DHT22;5630;49.342;10.802;2024-01-06T04:50:10;4.60;99.90
11152;DHT22;5630;49.342;10.802;2024-01-06T04:52:36;4.60;99.90
11152;DHT22;5630;49.342;10.802;2024-01-06T04:55:02;4.60;99.90
11152;DHT22;5630;49.342;10.802;2024-01-06T04:57:27;4.60;99.90
11152;DHT22;5630;49.342;10.802;2024-01-06T04:59:53;4.60;99.90
11152;DHT22;5630;49.342;10.802;2024-01-06T05:02:19;4.60;99.90
11152;DHT22;5630;49.342;10.802;2024-01-06T05:04:44;4.60;99.90
11152;DHT22;5630;49.342;10.802;2024-01-06T05:07:10;4.60;99.90
11152;DHT22;5630;49.342;10.802;2024-01-06T05:09:35;4.60;99.90
11152;DHT22;5630;49.342;10.802;2024-01-06T05:12:01;4.50;99.90
11152;DHT22;5630;49.342;10.802;2024-01-06T05:14:27;4.50;99.90
11152;DHT22;5630;49.342;10.802;2024-01-06T05:16:52;4.50;99.90
11152;DHT22;5630;49.342;10.802;2024-01-06T05:19:18;4.50;99.90
11152;DHT22;5630;49.342;10.802;2024-01-06T05:21:47;4.60;99.90
11152;DHT22;5630;49.342;10.802;2024-01-06T05:24:12;4.50;99.90
11152;DHT22;5630;49.342;10.802;2024-01-06T05:26:38;4.40;99.90
11152;DHT22;5630;49.342;10.802;2024-01-06T05:29:03;4.40;99.90
11152;DHT22;5630;49.342;10.802;2024-01-06T05:31:29;4.40;99.90
11152;DHT22;5630;49.342;10.802;2024-01-06T05:33:54;4.40;99.90
11152;DHT22;5630;49.342;10.802;2024-01-06T05:36:20;4.40;99.90
11152;DHT22;5630;49.342;10.802;2024-01-06T05:38:46;4.30;99.90
11152;DHT22;5630;49.342;10.802;2024-01-06T05:41:11;4.30;99.90
11152;DHT22;5630;49.342;10.802;2024-01-06T05:43:37;4.30;99.90
11152;DHT22;5630;49.342;10.802;2024-01-06T05:46:02;4.30;99.90
11152;DHT22;5630;49.342;10.802;2024-01-06T05:48:28;4.30;99.90
11152;DHT22;5630;49.342;10.802;2024-01-06T05:50:53;4.40;99.90
11152;DHT22;5630;49.342;10.802;2024-01-06T05:53:19;4.40;99.90
11152;DHT22;5630;49.342;10.802;2024-01-06T05:55:45;4.30;99.90
11152;DHT22;5630;49.342;10.802;2024-01-06T05:58:10;4.30;99.90
11152;DHT22;5630;49.342;10.802;2024-01-06T06:00:36;4.30;99.90
11152;DHT22;5630;49.342;10.802;2024-01-06T06:03:01;4.30;99.90
11152;DHT22;5630;49.342;10.802;2024-01-06T06:05:27;4.30;99.90
11152;DHT22;5630;49.342;10.802;2024-01-06T06:07:52;4.30;99.90
11152;DHT22;5630;49.342;10.802;2024-01-06T06:10:18;4.30;99.90
11152;DHT22;5630;49.342;10.802;2024-01-06T06:12:44;4.20;99.90
11152;DHT22;5630;49.342;10.802;2024-01-06T06:15:10;4.30;99.90
11152;DHT22;5630;49.342;10.802;2024-01-06T06:17:36;4.30;99.90
11152;DHT22;5630;49.342;10.802;2024-01-06T06:20:01;4.30;99.90
11152;DHT22;5630;49.342;10.802;2024-01-06T06:22:27;4.20;99.90
11152;DHT22;5630;49.342;10.802;2024-01-06T06:24:59;4.20;99.90
11152;DHT22;5630;49.342;10.802;2024-01-06T06:27:25;4.10;99.90
11152;DHT22;5630;49.342;10.802;2024-01-06T06:29:52;4.20;99.90
11152;DHT22;5630;49.342;10.802;2024-01-06T06:32:17;4.10;99.90
11152;DHT22;5630;49.342;10.802;2024-01-06T06:34:43;4.10;99.90
11152;DHT22;5630;49.342;10.802;2024-01-06T06:37:08;4.10;99.90
11152;DHT22;5630;49.342;10.802;2024-01-06T06:39:34;4.10;99.90
11152;DHT22;5630;49.342;10.802;2024-01-06T06:42:01;4.10;99.90
11152;DHT22;5630;49.342;10.802;2024-01-06T06:44:27;4.20;99.90
11152;DHT22;5630;49.342;10.802;2024-01-06T06:46:52;4.30;99.90
11152;DHT22;5630;49.342;10.802;2024-01-06T06:49:18;4.30;99.90
11152;DHT22;5630;49.342;10.802;2024-01-06T06:51:43;4.30;99.90
11152;DHT22;5630;49.342;10.802;2024-01-06T06:54:13;4.40;99.90
11152;DHT22;5630;49.342;10.802;2024-01-06T06:56:40;4.40;99.90
11152;DHT22;5630;49.342;10.802;2024-01-06T06:59:05;4.30;99.90
11152;DHT22;5630;49.342;10.802;2024-01-06T07:01:31;4.30;99.90
11152;DHT22;5630;49.342;10.802;2024-01-06T07:03:56;4.30;99.90
11152;DHT22;5630;49.342;10.802;2024-01-06T07:06:22;4.30;99.90
11152;DHT22;5630;49.342;10.802;2024-01-06T07:08:48;4.30;99.90
11152;DHT22;5630;49.342;10.802;2024-01-06T07:11:13;4.30;99.90
11152;DHT22;5630;49.342;10.802;2024-01-06T07:13:40;4.20;99.90
11152;DHT22;5630;49.342;10.802;2024-01-06T07:16:06;4.20;99.90
11152;DHT22;5630;49.342;10.802;2024-01-06T07:18:32;4.20;99.90
11152;DHT22;5630;49.342;10.802;2024-01-06T07:20:58;4.10;99.90
11152;DHT22;5630;49.342;10.802;2024-01-06T07:23:23;4.20;99.90
11152;DHT22;5630;49.342;10.802;2024-01-06T07:25:49;4.80;99.90
11152;DHT22;5630;49.342;10.802;2024-01-06T07:28:15;5.30;99.90
11152;DHT22;5630;49.342;10.802;2024-01-06T07:30:40;5.00;99.90
11152;DHT22;5630;49.342;10.802;2024-01-06T07:33:06;4.80;99.90
11152;DHT22;5630;49.342;10.802;2024-01-06T07:35:32;4.70;99.90
11152;DHT22;5630;49.342;10.802;2024-01-06T07:37:57;4.50;99.90
11152;DHT22;5630;49.342;10.802;2024-01-06T07:40:23;4.50;99.90
11152;DHT22;5630;49.342;10.802;2024-01-06T07:42:50;4.40;99.90
11152;DHT22;5630;49.342;10.802;2024-01-06T07:45:17;4.30;99.90
11152;DHT22;5630;49.342;10.802;2024-01-06T07:47:42;4.30;99.90
11152;DHT22;5630;49.342;10.802;2024-01-06T07:50:14;4.30;99.90
11152;DHT22;5630;49.342;10.802;2024-01-06T07:52:42;4.20;99.90
11152;DHT22;5630;49.342;10.802;2024-01-06T07:55:08;4.20;99.90
11152;DHT22;5630;49.342;10.802;2024-01-06T07:57:33;5.60;99.90
11152;DHT22;5630;49.342;10.802;2024-01-06T07:59:59;7.20;99.90
11152;DHT22;5630;49.342;10.802;2024-01-06T08:02:26;8.20;99.90
11152;DHT22;5630;49.342;10.802;2024-01-06T08:04:51;7.60;99.90
11152;DHT22;5630;49.342;10.802;2024-01-06T08:07:17;7.00;99.90
11152;DHT22;5630;49.342;10.802;2024-01-06T08:09:43;6.70;99.90
11152;DHT22;5630;49.342;10.802;2024-01-06T08:12:09;6.40;99.90
11152;DHT22;5630;49.342;10.802;2024-01-06T08:14:35;6.10;99.90
11152;DHT22;5630;49.342;10.802;2024-01-06T08:17:00;5.70;99.90
11152;DHT22;5630;49.342;10.802;2024-01-06T08:19:26;5.60;99.90
11152;DHT22;5630;49.342;10.802;2024-01-06T08:21:53;6.10;99.90
11152;DHT22;5630;49.342;10.802;2024-01-06T08:24:19;6.10;99.90
11152;DHT22;5630;49.342;10.802;2024-01-06T08:26:44;5.80;99.90
11152;DHT22;5630;49.342;10.802;2024-01-06T08:29:10;5.70;99.90
11152;DHT22;5630;49.342;10.802;2024-01-06T08:31:36;5.50;99.90
11152;DHT22;5630;49.342;10.802;2024-01-06T08:34:01;5.40;99.90
11152;DHT22;5630;49.342;10.802;2024-01-06T08:36:27;5.40;99.90
11152;DHT22;5630;49.342;10.802;2024-01-06T08:38:52;5.20;99.90
11152;DHT22;5630;49.342;10.802;2024-01-06T08:41:18;5.00;99.90
11152;DHT22;5630;49.342;10.802;2024-01-06T08:43:43;5.00;99.90
11152;DHT22;5630;49.342;10.802;2024-01-06T08:46:09;5.00;99.90
11152;DHT22;5630;49.342;10.802;2024-01-06T08:48:35;5.00;99.90
11152;DHT22;5630;49.342;10.802;2024-01-06T08:51:00;5.00;99.90
11152;DHT22;5630;49.342;10.802;2024-01-06T08:53:26;5.00;99.90
11152;DHT22;5630;49.342;10.802;2024-01-06T08:55:51;5.00;99.90
11152;DHT22;5630;49.342;10.802;2024-01-06T08:58:17;5.00;99.90
11152;DHT22;5630;49.342;10.802;2024-01-06T09:00:44;5.00;99.90
11152;DHT22;5630;49.342;10.802;2024-01-06T09:03:10;4.90;99.90
11152;DHT22;5630;49.342;10.802;2024-01-06T09:05:37;4.90;99.90
11152;DHT22;5630;49.342;10.802;2024-01-06T09:08:03;4.90;99.90
11152;DHT22;5630;49.342;10.802;2024-01-06T09:10:29;4.90;99.90
11152;DHT22;5630;49.342;10.802;2024-01-06T09:12:55;4.90;99.90
11152;DHT22;5630;49.342;10.802;2024-01-06T09:15:20;4.90;99.90
11152;DHT22;5630;49.342;10.802;2024-01-06T09:17:46;4.90;99.90
11152;DHT22;5630;49.342;10.802;2024-01-06T09:20:11;4.90;99.90
11152;DHT22;5630;49.342;10.802;2024-01-06T09:22:37;4.80;99.90
11152;DHT22;5630;49.342;10.802;2024-01-06T09:25:02;4.80;99.90
11152;DHT22;5630;49.342;10.802;2024-01-06T09:27:28;4.80;99.90
11152;DHT22;5630;49.342;10.802;2024-01-06T09:29:54;4.90;99.90
11152;DHT22;5630;49.342;10.802;2024-01-06T09:32:19;4.80;99.90
11152;DHT22;5630;49.342;10.802;2024-01-06T09:34:45;4.80;99.90
11152;DHT22;5630;49.342;10.802;2024-01-06T09:37:10;4.80;99.90
11152;DHT22;5630;49.342;10.802;2024-01-06T09:39:36;4.80;99.90
11152;DHT22;5630;49.342;10.802;2024-01-06T09:42:02;4.90;99.90
11152;DHT22;5630;49.342;10.802;2024-01-06T09:44:27;4.70;99.90
11152;DHT22;5630;49.342;10.802;2024-01-06T09:46:55;4.80;99.90
11152;DHT22;5630;49.342;10.802;2024-01-06T09:49:23;4.90;99.90
11152;DHT22;5630;49.342;10.802;2024-01-06T09:51:50;5.00;99.90
11152;DHT22;5630;49.342;10.802;2024-01-06T09:54:22;5.00;99.90
11152;DHT22;5630;49.342;10.802;2024-01-06T09:56:49;5.00;99.90
11152;DHT22;5630;49.342;10.802;2024-01-06T09:59:14;5.10;99.90
11152;DHT22;5630;49.342;10.802;2024-01-06T10:01:41;5.20;99.90
11152;DHT22;5630;49.342;10.802;2024-01-06T10:04:06;5.30;99.90
11152;DHT22;5630;49.342;10.802;2024-01-06T10:06:33;5.30;99.90
11152;DHT22;5630;49.342;10.802;2024-01-06T10:08:58;5.30;99.90
11152;DHT22;5630;49.342;10.802;2024-01-06T10:11:25;5.40;99.90
11152;DHT22;5630;49.342;10.802;2024-01-06T10:13:52;5.20;99.90
11152;DHT22;5630;49.342;10.802;2024-01-06T10:16:18;5.20;99.90
11152;DHT22;5630;49.342;10.802;2024-01-06T10:18:44;5.20;99.90
11152;DHT22;5630;49.342;10.802;2024-01-06T10:21:10;5.20;99.90
11152;DHT22;5630;49.342;10.802;2024-01-06T10:23:38;5.20;99.90
11152;DHT22;5630;49.342;10.802;2024-01-06T10:26:04;5.30;99.90
11152;DHT22;5630;49.342;10.802;2024-01-06T10:28:29;5.30;99.90
11152;DHT22;5630;49.342;10.802;2024-01-06T10:30:55;5.30;99.90
11152;DHT22;5630;49.342;10.802;2024-01-06T10:33:26;5.30;99.90
11152;DHT22;5630;49.342;10.802;2024-01-06T10:35:52;5.30;99.90
11152;DHT22;5630;49.342;10.802;2024-01-06T10:38:20;5.30;99.90
11152;DHT22;5630;49.342;10.802;2024-01-06T10:40:58;5.40;99.90
11152;DHT22;5630;49.342;10.802;2024-01-06T10:43:27;5.30;99.90
11152;DHT22;5630;49.342;10.802;2024-01-06T10:45:56;5.30;99.90
11152;DHT22;5630;49.342;10.802;2024-01-06T10:48:25;5.40;99.90
11152;DHT22;5630;49.342;10.802;2024-01-06T10:50:52;5.30;99.90
11152;DHT22;5630;49.342;10.802;2024-01-06T10:53:20;5.30;99.90
11152;DHT22;5630;49.342;10.802;2024-01-06T10:55:46;5.30;99.90
11152;DHT22;5630;49.342;10.802;2024-01-06T10:58:14;5.30;99.90
11152;DHT22;5630;49.342;10.802;2024-01-06T11:00:41;5.30;99.90
11152;DHT22;5630;49.342;10.802;2024-01-06T11:03:09;5.40;99.90
11152;DHT22;5630;49.342;10.802;2024-01-06T11:05:36;5.40;99.90
11152;DHT22;5630;49.342;10.802;2024-01-06T11:08:03;5.40;99.90
11152;DHT22;5630;49.342;10.802;2024-01-06T11:10:30;5.50;99.90
11152;DHT22;5630;49.342;10.802;2024-01-06T11:13:12;5.50;99.90
11152;DHT22;5630;49.342;10.802;2024-01-06T11:15:51;5.60;99.90
11152;DHT22;5630;49.342;10.802;2024-01-06T11:18:37;5.50;99.90
11152;DHT22;5630;49.342;10.802;2024-01-06T11:21:17;5.60;99.90
11152;DHT22;5630;49.342;10.802;2024-01-06T11:23:44;5.50;99.90
11152;DHT22;5630;49.342;10.802;2024-01-06T11:26:10;5.60;99.90
11152;DHT22;5630;49.342;10.802;2024-01-06T11:28:46;5.50;99.90
11152;DHT22;5630;49.342;10.802;2024-01-06T11:31:12;5.60;99.90
11152;DHT22;5630;49.342;10.802;2024-01-06T11:33:42;5.60;99.90
11152;DHT22;5630;49.342;10.802;2024-01-06T11:36:09;5.60;99.90
11152;DHT22;5630;49.342;10.802;2024-01-06T11:38:38;5.50;99.90
11152;DHT22;5630;49.342;10.802;2024-01-06T11:41:07;5.60;99.90
11152;DHT22;5630;49.342;10.802;2024-01-06T11:43:34;5.60;99.90
11152;DHT22;5630;49.342;10.802;2024-01-06T11:46:01;5.60;99.90
11152;DHT22;5630;49.342;10.802;2024-01-06T11:48:29;5.60;99.90
11152;DHT22;5630;49.342;10.802;2024-01-06T11:50:57;5.60;99.90
11152;DHT22;5630;49.342;10.802;2024-01-06T11:53:26;5.60;99.90
11152;DHT22;5630;49.342;10.802;2024-01-06T11:55:52;5.70;99.90
11152;DHT22;5630;49.342;10.802;2024-01-06T11:58:18;5.60;99.90
11152;DHT22;5630;49.342;10.802;2024-01-06T12:00:43;5.70;99.90
11152;DHT22;5630;49.342;10.802;2024-01-06T12:03:09;5.70;99.90
11152;DHT22;5630;49.342;10.802;2024-01-06T12:05:35;5.80;99.90
11152;DHT22;5630;49.342;10.802;2024-01-06T12:08:02;5.70;99.90
11152;DHT22;5630;49.342;10.802;2024-01-06T12:10:32;5.70;99.90
11152;DHT22;5630;49.342;10.802;2024-01-06T12:13:05;5.60;99.90
11152;DHT22;5630;49.342;10.802;2024-01-06T12:15:33;5.60;99.90
11152;DHT22;5630;49.342;10.802;2024-01-06T12:18:02;5.50;99.90
11152;DHT22;5630;49.342;10.802;2024-01-06T12:20:28;5.50;99.90
11152;DHT22;5630;49.342;10.802;2024-01-06T12:22:55;5.50;99.90
11152;DHT22;5630;49.342;10.802;2024-01-06T12:25:21;5.50;99.90
11152;DHT22;5630;49.342;10.802;2024-01-06T12:27:48;5.40;99.90
11152;DHT22;5630;49.342;10.802;2024-01-06T12:30:15;5.30;99.90
11152;DHT22;5630;49.342;10.802;2024-01-06T12:32:48;5.30;99.90
11152;DHT22;5630;49.342;10.802;2024-01-06T12:35:21;5.40;99.90
11152;DHT22;5630;49.342;10.802;2024-01-06T12:37:49;5.40;99.90
11152;DHT22;5630;49.342;10.802;2024-01-06T12:40:17;5.30;99.90
11152;DHT22;5630;49.342;10.802;2024-01-06T12:42:45;5.30;99.90
11152;DHT22;5630;49.342;10.802;2024-01-06T12:45:10;5.30;99.90
11152;DHT22;5630;49.342;10.802;2024-01-06T12:47:36;5.40;99.90
11152;DHT22;5630;49.342;10.802;2024-01-06T12:50:02;5.40;99.90
11152;DHT22;5630;49.342;10.802;2024-01-06T12:52:29;5.40;99.90
11152;DHT22;5630;49.342;10.802;2024-01-06T12:54:55;5.40;99.90
11152;DHT22;5630;49.342;10.802;2024-01-06T12:57:20;5.40;99.90
11152;DHT22;5630;49.342;10.802;2024-01-06T12:59:46;5.40;99.90
11152;DHT22;5630;49.342;10.802;2024-01-06T13:02:12;5.30;99.90
11152;DHT22;5630;49.342;10.802;2024-01-06T13:04:37;5.30;99.90
11152;DHT22;5630;49.342;10.802;2024-01-06T13:07:03;5.30;99.90
11152;DHT22;5630;49.342;10.802;2024-01-06T13:09:29;5.30;99.90
11152;DHT22;5630;49.342;10.802;2024-01-06T13:11:54;5.40;99.90
11152;DHT22;5630;49.342;10.802;2024-01-06T13:14:26;5.40;99.90
11152;DHT22;5630;49.342;10.802;2024-01-06T13:16:51;6.50;99.90
11152;DHT22;5630;49.342;10.802;2024-01-06T13:21:45;6.50;99.90
11152;DHT22;5630;49.342;10.802;2024-01-06T13:24:10;6.40;99.90
11152;DHT22;5630;49.342;10.802;2024-01-06T13:26:37;6.40;99.90
11152;DHT22;5630;49.342;10.802;2024-01-06T13:29:03;6.30;99.90
11152;DHT22;5630;49.342;10.802;2024-01-06T13:31:28;6.20;99.90
11152;DHT22;5630;49.342;10.802;2024-01-06T13:33:54;6.10;99.90
11152;DHT22;5630;49.342;10.802;2024-01-06T13:36:21;5.90;99.90
11152;DHT22;5630;49.342;10.802;2024-01-06T13:38:46;5.80;99.90
11152;DHT22;5630;49.342;10.802;2024-01-06T13:41:14;5.90;99.90
11152;DHT22;5630;49.342;10.802;2024-01-06T13:43:39;5.90;99.90
11152;DHT22;5630;49.342;10.802;2024-01-06T13:46:05;5.90;99.90
11152;DHT22;5630;49.342;10.802;2024-01-06T13:48:30;5.90;99.90
11152;DHT22;5630;49.342;10.802;2024-01-06T13:50:56;5.90;99.90
11152;DHT22;5630;49.342;10.802;2024-01-06T13:53:22;5.80;99.90
11152;DHT22;5630;49.342;10.802;2024-01-06T13:55:48;5.80;99.90
11152;DHT22;5630;49.342;10.802;2024-01-06T13:58:13;5.80;99.90
11152;DHT22;5630;49.342;10.802;2024-01-06T14:00:39;5.80;99.90
11152;DHT22;5630;49.342;10.802;2024-01-06T14:03:05;5.70;99.90
11152;DHT22;5630;49.342;10.802;2024-01-06T14:05:32;5.70;99.90
11152;DHT22;5630;49.342;10.802;2024-01-06T14:07:58;5.70;99.90
11152;DHT22;5630;49.342;10.802;2024-01-06T14:10:24;5.80;99.90
11152;DHT22;5630;49.342;10.802;2024-01-06T14:12:49;5.80;99.90
11152;DHT22;5630;49.342;10.802;2024-01-06T14:15:15;5.80;99.90
11152;DHT22;5630;49.342;10.802;2024-01-06T14:17:41;5.70;99.90
11152;DHT22;5630;49.342;10.802;2024-01-06T14:20:07;5.60;99.90
11152;DHT22;5630;49.342;10.802;2024-01-06T14:22:34;5.60;99.90
11152;DHT22;5630;49.342;10.802;2024-01-06T14:25:00;5.50;99.90
11152;DHT22;5630;49.342;10.802;2024-01-06T14:27:26;5.50;99.90
11152;DHT22;5630;49.342;10.802;2024-01-06T14:29:51;5.50;99.90
11152;DHT22;5630;49.342;10.802;2024-01-06T14:32:21;5.50;99.90
11152;DHT22;5630;49.342;10.802;2024-01-06T14:34:49;5.50;99.90
11152;DHT22;5630;49.342;10.802;2024-01-06T14:37:15;5.50;99.90
11152;DHT22;5630;49.342;10.802;2024-01-06T14:39:40;5.50;99.90
11152;DHT22;5630;49.342;10.802;2024-01-06T14:42:06;5.40;99.90
11152;DHT22;5630;49.342;10.802;2024-01-06T14:44:32;5.30;99.90
11152;DHT22;5630;49.342;10.802;2024-01-06T14:46:57;5.40;99.90
11152;DHT22;5630;49.342;10.802;2024-01-06T14:49:23;5.40;99.90
11152;DHT22;5630;49.342;10.802;2024-01-06T14:51:49;5.20;99.90
11152;DHT22;5630;49.342;10.802;2024-01-06T14:54:14;5.20;99.90
11152;DHT22;5630;49.342;10.802;2024-01-06T14:56:40;5.20;99.90
11152;DHT22;5630;49.342;10.802;2024-01-06T14:59:09;5.20;99.90
11152;DHT22;5630;49.342;10.802;2024-01-06T15:01:34;5.20;99.90
11152;DHT22;5630;49.342;10.802;2024-01-06T15:04:00;5.30;99.90
11152;DHT22;5630;49.342;10.802;2024-01-06T15:06:26;5.30;99.90
11152;DHT22;5630;49.342;10.802;2024-01-06T15:08:51;5.10;99.90
11152;DHT22;5630;49.342;10.802;2024-01-06T15:11:17;5.10;99.90
11152;DHT22;5630;49.342;10.802;2024-01-06T15:13:42;5.10;99.90
11152;DHT22;5630;49.342;10.802;2024-01-06T15:16:08;5.20;99.90
11152;DHT22;5630;49.342;10.802;2024-01-06T15:18:33;5.20;99.90
11152;DHT22;5630;49.342;10.802;2024-01-06T15:21:01;5.30;99.90
11152;DHT22;5630;49.342;10.802;2024-01-06T15:23:26;5.30;99.90
11152;DHT22;5630;49.342;10.802;2024-01-06T15:25:52;5.30;99.90
11152;DHT22;5630;49.342;10.802;2024-01-06T15:28:17;5.40;99.90
11152;DHT22;5630;49.342;10.802;2024-01-06T15:30:43;5.40;99.90
11152;DHT22;5630;49.342;10.802;2024-01-06T15:33:09;5.40;99.90
11152;DHT22;5630;49.342;10.802;2024-01-06T15:35:34;5.40;99.90
11152;DHT22;5630;49.342;10.802;2024-01-06T15:38:00;5.50;99.90
11152;DHT22;5630;49.342;10.802;2024-01-06T15:40:25;5.40;99.90